Time;durP1;ratioP1;P1;durP2;ratioP2;P2;SDS_P1;SDS_P2;PMS_P1;PMS_P2;Temp;Humidity;BMP_temperature;BMP_pressure;BME280_temperature;BME280_humidity;BME280_pressure;Samples;Min_cycle;Max_cycle;Signal;HPM_P1;HPM_P2
2023/03/23 00:00:41;;;;;;;15.60;5.70;;;;;;;;;;110053;1280;22180;-78
2023/03/23 00:03:35;;;;;;;14.90;6.10;;;;;;;;;;110126;1281;22325;-79
2023/03/23 00:06:16;;;;;;;16.50;6.60;;;;;;;;;;110448;1275;22883;-78
2023/03/23 00:08:46;;;;;;;14.00;6.20;;;;;;;;;;110678;1259;22088;-78
2023/03/23 00:11:21;;;;;;;15.90;6.20;;;;;;;;;;110609;1276;22113;-78
2023/03/23 00:13:51;;;;;;;13.50;5.80;;;;;;;;;;110466;1276;23166;-79
2023/03/23 00:16:19;;;;;;;17.40;6.60;;;;;;;;;;110449;1276;22131;-78
2023/03/23 00:18:58;;;;;;;15.10;6.90;;;;;;;;;;110612;1257;22213;-79
2023/03/23 00:21:36;;;;;;;12.20;5.70;;;;;;;;;;110464;1275;22344;-80
2023/03/23 00:24:06;;;;;;;11.90;5.00;;;;;;;;;;110311;1275;22103;-80
2023/03/23 00:26:35;;;;;;;13.70;5.10;;;;;;;;;;110561;1275;22110;-80
2023/03/23 00:29:09;;;;;;;13.00;4.80;;;;;;;;;;110431;1259;22134;-80
2023/03/23 00:31:57;;;;;;;10.70;4.80;;;;;;;;;;110495;1276;22195;-80
2023/03/23 00:34:43;;;;;;;11.50;4.80;;;;;;;;;;110629;1276;22133;-80
2023/03/23 00:37:12;;;;;;;10.80;4.70;;;;;;;;;;110620;1276;22831;-79
2023/03/23 00:39:49;;;;;;;10.10;4.70;;;;;;;;;;110547;1258;22187;-78
2023/03/23 00:42:17;;;;;;;9.70;3.40;;;;;;;;;;110580;1275;22212;-79
2023/03/23 00:44:44;;;;;;;9.00;3.30;;;;;;;;;;110356;1275;22312;-76
2023/03/23 00:47:11;;;;;;;7.70;3.20;;;;;;;;;;110545;1275;22078;-76
2023/03/23 00:49:38;;;;;;;8.90;3.60;;;;;;;;;;110589;1259;22638;-76
2023/03/23 00:52:05;;;;;;;10.90;3.90;;;;;;;;;;110673;1276;22090;-76
2023/03/23 00:54:33;;;;;;;8.10;3.60;;;;;;;;;;110358;1276;22877;-76
2023/03/23 00:57:01;;;;;;;8.60;2.90;;;;;;;;;;110630;1276;22101;-76
2023/03/23 00:59:27;;;;;;;10.00;2.90;;;;;;;;;;110456;1258;22156;-78
2023/03/23 01:01:54;;;;;;;10.90;3.10;;;;;;;;;;110661;1275;22081;-77
2023/03/23 01:04:21;;;;;;;10.00;3.60;;;;;;;;;;110585;1275;22879;-78
2023/03/23 01:06:50;;;;;;;8.90;2.80;;;;;;;;;;110529;1275;22288;-77
2023/03/23 01:09:19;;;;;;;9.80;3.10;;;;;;;;;;110545;1254;22289;-78
2023/03/23 01:11:49;;;;;;;8.20;3.00;;;;;;;;;;110476;1276;22130;-77
2023/03/23 01:14:17;;;;;;;9.30;3.00;;;;;;;;;;110637;1276;22841;-77
2023/03/23 01:16:43;;;;;;;8.50;2.40;;;;;;;;;;110640;1276;22872;-78
2023/03/23 01:19:10;;;;;;;8.60;2.60;;;;;;;;;;110527;1276;23143;-78
2023/03/23 01:21:38;;;;;;;9.40;2.70;;;;;;;;;;110459;1255;22144;-77
2023/03/23 01:24:06;;;;;;;7.90;2.70;;;;;;;;;;110546;1276;22848;-78
2023/03/23 01:26:32;;;;;;;8.80;2.60;;;;;;;;;;110573;1276;22124;-78
2023/03/23 01:28:59;;;;;;;9.30;3.10;;;;;;;;;;110352;1276;22135;-78
2023/03/23 01:31:27;;;;;;;12.00;3.30;;;;;;;;;;110709;1258;22149;-78
2023/03/23 01:33:55;;;;;;;10.00;3.90;;;;;;;;;;110471;1276;22762;-78
2023/03/23 01:36:28;;;;;;;13.90;4.60;;;;;;;;;;110451;1276;22175;-78
2023/03/23 01:38:58;;;;;;;14.80;5.30;;;;;;;;;;110369;1267;22719;-79
2023/03/23 01:41:26;;;;;;;10.30;3.80;;;;;;;;;;110465;1265;22119;-78
2023/03/23 01:43:57;;;;;;;12.10;3.60;;;;;;;;;;110424;1276;22912;-78
2023/03/23 01:46:26;;;;;;;11.60;3.80;;;;;;;;;;110315;1276;22165;-78
2023/03/23 01:48:55;;;;;;;13.90;4.20;;;;;;;;;;110301;1276;22102;-78
2023/03/23 01:51:23;;;;;;;14.10;4.40;;;;;;;;;;110694;1263;22121;-77
2023/03/23 01:53:56;;;;;;;14.80;4.70;;;;;;;;;;110436;1276;22115;-77
2023/03/23 01:56:25;;;;;;;12.30;3.80;;;;;;;;;;110306;1276;21999;-77
2023/03/23 01:58:55;;;;;;;10.10;3.50;;;;;;;;;;110425;1276;22361;-78
2023/03/23 02:01:24;;;;;;;8.80;3.30;;;;;;;;;;110487;1259;22108;-78
2023/03/23 02:03:54;;;;;;;9.00;3.20;;;;;;;;;;110447;1276;22693;-78
2023/03/23 02:06:21;;;;;;;7.30;2.70;;;;;;;;;;110313;1276;22196;-78
2023/03/23 02:09:08;;;;;;;10.20;3.00;;;;;;;;;;110508;1276;22100;-78
2023/03/23 02:11:47;;;;;;;9.10;2.90;;;;;;;;;;110725;1257;22187;-78
2023/03/23 02:14:15;;;;;;;9.20;3.40;;;;;;;;;;110408;1276;22381;-78
2023/03/23 02:17:01;;;;;;;10.30;3.00;;;;;;;;;;110439;1276;22966;-78
2023/03/23 02:19:46;;;;;;;7.70;2.60;;;;;;;;;;110276;1278;22076;-79
2023/03/23 02:22:14;;;;;;;7.10;2.30;;;;;;;;;;110669;1260;22733;-78
2023/03/23 02:24:53;;;;;;;10.10;3.00;;;;;;;;;;110375;1277;22091;-79
2023/03/23 02:27:23;;;;;;;13.40;5.10;;;;;;;;;;110196;1277;22824;-78
2023/03/23 02:30:08;;;;;;;11.40;4.40;;;;;;;;;;110438;1277;22204;-78
2023/03/23 02:32:53;;;;;;;11.90;3.90;;;;;;;;;;110452;1259;22127;-78
2023/03/23 02:35:27;;;;;;;11.70;3.40;;;;;;;;;;110452;1277;22111;-78
2023/03/23 02:38:07;;;;;;;11.20;3.40;;;;;;;;;;110280;1278;22840;-78
2023/03/23 02:40:42;;;;;;;10.60;3.60;;;;;;;;;;110315;1278;22899;-79
2023/03/23 02:43:14;;;;;;;8.80;3.10;;;;;;;;;;110412;1260;22734;-79
2023/03/23 02:45:43;;;;;;;9.40;2.90;;;;;;;;;;110283;1278;22817;-79
2023/03/23 02:48:11;;;;;;;8.10;2.60;;;;;;;;;;110204;1278;22851;-79
2023/03/23 02:50:40;;;;;;;5.80;2.10;;;;;;;;;;110345;1278;22729;-79
2023/03/23 03:00:27;;;;;;;8.80;2.40;;;;;;;;;;109992;1283;22148;-79
2023/03/23 03:02:58;;;;;;;8.60;3.30;;;;;;;;;;110064;1267;22146;-80
2023/03/23 03:05:37;;;;;;;9.90;3.60;;;;;;;;;;110018;1283;22168;-79
2023/03/23 03:08:26;;;;;;;10.90;4.40;;;;;;;;;;109988;1282;22889;-80
2023/03/23 03:11:26;;;;;;;8.40;3.30;;;;;;;;;;110017;1282;22973;-80
2023/03/23 03:14:05;;;;;;;10.20;2.90;;;;;;;;;;109785;1273;22174;-79
2023/03/23 03:16:38;;;;;;;9.00;3.10;;;;;;;;;;109837;1284;22168;-79
2023/03/23 03:19:11;;;;;;;8.20;3.10;;;;;;;;;;109888;1285;22457;-80
2023/03/23 03:21:43;;;;;;;8.20;2.80;;;;;;;;;;109893;1285;22180;-80
2023/03/23 03:24:15;;;;;;;10.20;3.20;;;;;;;;;;110060;1260;22452;-80
2023/03/23 03:26:47;;;;;;;10.80;3.70;;;;;;;;;;110024;1283;22199;-80
2023/03/23 03:29:29;;;;;;;8.70;3.10;;;;;;;;;;109990;1283;22144;-80
2023/03/23 03:32:01;;;;;;;10.50;4.20;;;;;;;;;;109911;1283;22957;-80
2023/03/23 03:34:31;;;;;;;10.10;3.60;;;;;;;;;;110596;1260;22882;-80
2023/03/23 03:36:59;;;;;;;12.20;3.70;;;;;;;;;;110216;1279;22101;-79
2023/03/23 03:39:36;;;;;;;10.90;4.10;;;;;;;;;;110142;1279;22112;-80
2023/03/23 03:42:04;;;;;;;12.00;4.80;;;;;;;;;;110229;1279;22116;-80
2023/03/23 03:44:56;;;;;;;10.60;4.30;;;;;;;;;;110393;1257;22165;-79
2023/03/23 03:47:32;;;;;;;10.20;4.00;;;;;;;;;;110253;1278;22181;-79
2023/03/23 03:50:02;;;;;;;10.20;3.90;;;;;;;;;;110291;1279;22092;-80
2023/03/23 03:52:28;;;;;;;9.40;3.10;;;;;;;;;;110289;1279;22109;-80
2023/03/23 03:55:08;;;;;;;12.40;3.20;;;;;;;;;;110590;1260;22087;-79
2023/03/23 03:57:36;;;;;;;9.40;2.90;;;;;;;;;;110187;1278;22737;-79
2023/03/23 04:00:13;;;;;;;8.70;2.90;;;;;;;;;;110410;1278;22389;-80
2023/03/23 04:02:53;;;;;;;8.50;3.00;;;;;;;;;;110154;1279;22254;-82
2023/03/23 04:05:28;;;;;;;8.00;3.50;;;;;;;;;;110305;1263;22027;-79
2023/03/23 04:08:01;;;;;;;8.70;3.70;;;;;;;;;;110140;1280;22108;-79
2023/03/23 04:10:35;;;;;;;8.30;3.20;;;;;;;;;;110078;1279;22116;-79
2023/03/23 04:13:22;;;;;;;10.70;3.90;;;;;;;;;;110063;1278;22334;-80
2023/03/23 04:16:23;;;;;;;7.60;3.10;;;;;;;;;;110133;1267;22182;-79
2023/03/23 04:18:51;;;;;;;9.10;3.10;;;;;;;;;;110174;1279;22106;-80
2023/03/23 04:21:18;;;;;;;11.60;3.80;;;;;;;;;;110273;1279;22813;-79
2023/03/23 04:23:48;;;;;;;9.20;4.10;;;;;;;;;;110136;1277;22877;-79
2023/03/23 04:26:16;;;;;;;8.30;3.80;;;;;;;;;;110100;1262;22763;-79
2023/03/23 04:28:46;;;;;;;8.00;3.70;;;;;;;;;;110082;1280;22157;-80
2023/03/23 04:31:39;;;;;;;10.40;3.50;;;;;;;;;;110041;1280;22132;-79
2023/03/23 04:34:14;;;;;;;9.20;3.50;;;;;;;;;;110071;1279;22346;-81
2023/03/23 04:36:44;;;;;;;9.70;4.90;;;;;;;;;;110601;1263;22883;-79
2023/03/23 04:39:21;;;;;;;11.00;4.70;;;;;;;;;;110260;1279;22148;-79
2023/03/23 04:41:49;;;;;;;9.70;4.20;;;;;;;;;;110286;1279;22521;-79
2023/03/23 04:44:23;;;;;;;9.10;3.80;;;;;;;;;;110158;1279;22308;-79
2023/03/23 04:47:09;;;;;;;12.30;5.30;;;;;;;;;;110442;1264;22218;-80
2023/03/23 04:49:39;;;;;;;14.30;5.60;;;;;;;;;;110044;1280;22119;-79
2023/03/23 04:52:13;;;;;;;11.40;6.20;;;;;;;;;;110108;1280;22270;-79
2023/03/23 04:54:48;;;;;;;9.80;4.20;;;;;;;;;;110092;1279;22056;-80
2023/03/23 04:57:56;;;;;;;;;;;;;;;;;;;;;
2023/03/23 05:04:59;;;;;;;10.00;4.10;;;;;;;;;;109604;1267;22767;-79
2023/03/23 05:07:28;;;;;;;13.40;6.50;;;;;;;;;;109675;1270;22075;-79
2023/03/23 05:09:56;;;;;;;20.10;9.70;;;;;;;;;;109640;1289;22149;-79
2023/03/23 05:12:25;;;;;;;18.10;6.30;;;;;;;;;;109638;1289;22170;-79
2023/03/23 05:15:01;;;;;;;15.00;5.80;;;;;;;;;;109623;1289;22973;-80
2023/03/23 05:17:32;;;;;;;20.70;4.90;;;;;;;;;;109619;1274;22217;-79
2023/03/23 05:20:04;;;;;;;13.10;4.30;;;;;;;;;;109523;1289;22993;-79
2023/03/23 05:22:36;;;;;;;12.00;4.60;;;;;;;;;;109613;1289;22820;-79
2023/03/23 05:25:08;;;;;;;19.30;4.90;;;;;;;;;;109633;1289;22126;-80
2023/03/23 05:27:37;;;;;;;21.40;5.70;;;;;;;;;;109643;1272;22211;-79
2023/03/23 05:30:15;;;;;;;18.50;5.50;;;;;;;;;;109515;1289;22170;-79
2023/03/23 05:32:44;;;;;;;14.70;4.80;;;;;;;;;;109478;1289;22314;-79
2023/03/23 05:35:24;;;;;;;13.50;4.20;;;;;;;;;;109635;1289;22801;-78
2023/03/23 05:37:56;;;;;;;20.90;5.40;;;;;;;;;;109895;1271;22113;-79
2023/03/23 05:40:25;;;;;;;13.90;5.20;;;;;;;;;;110302;1279;22795;-76
2023/03/23 05:43:12;;;;;;;14.00;4.70;;;;;;;;;;110299;1279;22098;-77
2023/03/23 05:45:46;;;;;;;14.60;4.40;;;;;;;;;;110176;1279;22103;-78
2023/03/23 05:48:14;;;;;;;9.00;3.70;;;;;;;;;;110310;1258;22138;-77
2023/03/23 05:50:42;;;;;;;10.40;3.50;;;;;;;;;;110122;1279;22754;-78
2023/03/23 05:53:10;;;;;;;15.60;4.10;;;;;;;;;;110135;1279;22197;-78
2023/03/23 05:55:39;;;;;;;13.30;4.50;;;;;;;;;;110179;1279;22715;-78
2023/03/23 05:58:18;;;;;;;12.30;3.80;;;;;;;;;;110530;1259;22168;-78
2023/03/23 06:00:47;;;;;;;19.90;5.10;;;;;;;;;;110328;1279;23071;-78
2023/03/23 06:03:27;;;;;;;18.30;4.40;;;;;;;;;;110138;1279;22978;-78
2023/03/23 06:06:21;;;;;;;11.90;4.90;;;;;;;;;;110285;1256;23328;-79
2023/03/23 06:09:02;;;;;;;10.50;4.30;;;;;;;;;;110112;1276;22122;-79
2023/03/23 06:11:40;;;;;;;9.40;4.40;;;;;;;;;;110124;1279;22105;-78
2023/03/23 06:14:31;;;;;;;11.20;4.10;;;;;;;;;;110164;1279;22798;-78
2023/03/23 06:17:03;;;;;;;9.00;3.90;;;;;;;;;;110231;1257;22846;-78
2023/03/23 06:19:34;;;;;;;9.00;3.90;;;;;;;;;;110274;1279;21997;-78
2023/03/23 06:22:16;;;;;;;9.00;4.00;;;;;;;;;;110198;1279;22143;-78
2023/03/23 06:24:47;;;;;;;10.90;4.10;;;;;;;;;;110105;1279;22110;-78
2023/03/23 06:27:17;;;;;;;11.90;3.90;;;;;;;;;;110118;1261;22602;-78
2023/03/23 06:29:56;;;;;;;12.10;4.10;;;;;;;;;;110142;1280;22823;-77
2023/03/23 06:32:28;;;;;;;19.40;4.70;;;;;;;;;;110034;1280;22102;-78
2023/03/23 06:34:58;;;;;;;12.20;4.10;;;;;;;;;;110175;1280;22179;-78
2023/03/23 06:37:58;;;;;;;14.60;5.00;;;;;;;;;;110269;1258;22133;-78
2023/03/23 06:40:38;;;;;;;11.40;5.00;;;;;;;;;;110137;1279;22121;-78
2023/03/23 06:43:07;;;;;;;12.90;4.60;;;;;;;;;;110093;1279;22145;-78
2023/03/23 06:45:36;;;;;;;14.40;4.80;;;;;;;;;;110160;1278;23071;-78
2023/03/23 06:48:25;;;;;;;13.30;4.50;;;;;;;;;;110326;1259;21984;-79
2023/03/23 06:50:55;;;;;;;10.30;4.20;;;;;;;;;;110031;1280;22131;-79
2023/03/23 06:53:25;;;;;;;10.70;4.60;;;;;;;;;;110048;1280;22776;-78
2023/03/23 06:55:56;;;;;;;10.00;4.40;;;;;;;;;;110107;1281;22141;-79
2023/03/23 06:58:25;;;;;;;16.60;4.00;;;;;;;;;;110350;1256;22190;-78
2023/03/23 07:00:56;;;;;;;12.20;4.20;;;;;;;;;;110036;1279;22127;-79
2023/03/23 07:03:31;;;;;;;9.50;4.10;;;;;;;;;;110122;1279;22794;-77
2023/03/23 07:06:01;;;;;;;14.20;4.00;;;;;;;;;;110135;1279;22083;-77
2023/03/23 07:08:33;;;;;;;10.40;4.70;;;;;;;;;;110331;1260;22238;-77
2023/03/23 07:11:02;;;;;;;10.90;4.60;;;;;;;;;;110021;1280;22917;-77
2023/03/23 07:13:31;;;;;;;16.20;5.90;;;;;;;;;;110150;1280;22111;-77
2023/03/23 07:16:06;;;;;;;14.90;5.40;;;;;;;;;;110073;1280;22404;-80
2023/03/23 07:23:50;;;;;;;13.00;5.20;;;;;;;;;;103990;1294;545041;-83
2023/03/23 07:26:25;;;;;;;10.00;4.40;;;;;;;;;;107179;1276;22643;-81
2023/03/23 07:28:54;;;;;;;8.20;3.80;;;;;;;;;;106922;1276;22533;-81
2023/03/23 07:31:26;;;;;;;8.80;3.80;;;;;;;;;;106957;1269;23228;-81
2023/03/23 07:33:55;;;;;;;10.40;3.90;;;;;;;;;;106840;1262;22784;-84
2023/03/23 07:36:25;;;;;;;12.40;4.00;;;;;;;;;;104900;1275;2625040;-79
2023/03/23 07:39:05;;;;;;;9.50;3.30;;;;;;;;;;107193;1275;22527;-78
2023/03/23 07:41:32;;;;;;;10.80;3.80;;;;;;;;;;106943;1275;25268;-79
2023/03/23 07:44:10;;;;;;;11.20;3.40;;;;;;;;;;107051;1258;22513;-80
2023/03/23 07:46:41;;;;;;;8.40;3.40;;;;;;;;;;106920;1273;25332;-91
2023/03/23 07:49:20;;;;;;;10.20;3.40;;;;;;;;;;106944;1275;22520;-79
2023/03/23 07:52:02;;;;;;;12.10;3.50;;;;;;;;;;106949;1275;22598;-80
2023/03/23 07:54:32;;;;;;;12.10;3.20;;;;;;;;;;106881;1261;24543;-78
2023/03/23 07:57:07;;;;;;;9.60;3.30;;;;;;;;;;107033;1276;22531;-81
2023/03/23 07:59:41;;;;;;;10.50;3.50;;;;;;;;;;106867;1275;25425;-82
2023/03/23 08:02:09;;;;;;;12.10;3.60;;;;;;;;;;107012;1275;24242;-85
2023/03/23 08:05:14;;;;;;;12.00;3.20;;;;;;;;;;107113;1275;25457;-78
2023/03/23 08:08:01;;;;;;;11.10;3.20;;;;;;;;;;107008;1275;23122;-83
2023/03/23 08:10:49;;;;;;;13.60;3.70;;;;;;;;;;107037;1275;22517;-81
2023/03/23 08:13:36;;;;;;;17.90;3.50;;;;;;;;;;106952;1254;25289;-82
2023/03/23 08:16:28;;;;;;;11.10;3.30;;;;;;;;;;106940;1275;25529;-81
2023/03/23 08:19:02;;;;;;;13.60;2.80;;;;;;;;;;106915;1276;22519;-81
2023/03/23 08:22:04;;;;;;;12.30;2.80;;;;;;;;;;106748;1276;22523;-82
2023/03/23 08:24:36;;;;;;;8.80;2.40;;;;;;;;;;106949;1257;22539;-83
2023/03/23 08:27:34;;;;;;;12.00;2.70;;;;;;;;;;106869;1275;23411;-81
2023/03/23 08:30:15;;;;;;;10.30;2.90;;;;;;;;;;106937;1275;25426;-80
2023/03/23 08:33:05;;;;;;;10.30;2.50;;;;;;;;;;106814;1275;25276;-77
2023/03/23 08:36:14;;;;;;;9.00;2.70;;;;;;;;;;106713;1276;26480;-82
2023/03/23 08:39:14;;;;;;;11.60;2.80;;;;;;;;;;106824;1276;22744;-77
2023/03/23 08:42:33;;;;;;;11.50;2.40;;;;;;;;;;106994;1275;21829;-81
2023/03/23 08:45:49;;;;;;;;;;;;;;;;;;;;;
2023/03/23 08:48:43;;;;;;;7.30;2.40;;;;;;;;;;107117;1274;25569;-77
2023/03/23 08:52:07;;;;;;;7.20;2.50;;;;;;;;;;106970;1274;22525;-80
2023/03/23 08:54:56;;;;;;;7.70;2.50;;;;;;;;;;107129;1256;22523;-81
2023/03/23 08:57:46;;;;;;;9.70;2.40;;;;;;;;;;107108;1275;26513;-78
2023/03/23 09:00:29;;;;;;;8.50;1.80;;;;;;;;;;107160;1275;25326;-82
2023/03/23 09:03:06;;;;;;;9.70;2.00;;;;;;;;;;106910;1275;25353;-81
2023/03/23 09:05:55;;;;;;;6.20;1.40;;;;;;;;;;107077;1259;25310;-78
2023/03/23 09:08:35;;;;;;;3.80;1.00;;;;;;;;;;107082;1259;24227;-81
2023/03/23 09:11:03;;;;;;;8.60;1.40;;;;;;;;;;107208;1274;22708;-78
2023/03/23 09:13:30;;;;;;;6.60;1.10;;;;;;;;;;107100;1274;22526;-85
2023/03/23 09:15:57;;;;;;;6.90;1.10;;;;;;;;;;107113;1255;22667;-82
2023/03/23 09:18:25;;;;;;;6.90;1.20;;;;;;;;;;106860;1275;24228;-80
2023/03/23 09:20:52;;;;;;;5.20;1.10;;;;;;;;;;106934;1275;25285;-77
2023/03/23 09:23:22;;;;;;;7.30;0.90;;;;;;;;;;107125;1275;24219;-78
2023/03/23 09:25:51;;;;;;;6.40;1.00;;;;;;;;;;106972;1270;22524;-78
2023/03/23 09:28:20;;;;;;;7.80;1.00;;;;;;;;;;106961;1274;22520;-76
2023/03/23 09:30:47;;;;;;;6.90;1.10;;;;;;;;;;107161;1274;22513;-82
2023/03/23 09:33:14;;;;;;;7.00;1.20;;;;;;;;;;106910;1274;25350;-77
2023/03/23 09:36:02;;;;;;;7.90;0.90;;;;;;;;;;107086;1256;22483;-78
2023/03/23 09:38:41;;;;;;;8.80;1.10;;;;;;;;;;106984;1275;22632;-84
2023/03/23 09:41:33;;;;;;;4.70;1.40;;;;;;;;;;106955;1275;24337;-82
2023/03/23 09:44:08;;;;;;;3.20;0.90;;;;;;;;;;106904;1275;22523;-85
2023/03/23 09:46:41;;;;;;;6.50;1.10;;;;;;;;;;107139;1256;23918;-78
2023/03/23 09:49:26;;;;;;;5.20;1.30;;;;;;;;;;106985;1274;23829;-84
2023/03/23 09:51:57;;;;;;;7.30;1.20;;;;;;;;;;106989;1274;22526;-76
2023/03/23 09:54:50;;;;;;;8.80;1.00;;;;;;;;;;107272;1274;23119;-80
2023/03/23 09:57:45;;;;;;;5.30;1.20;;;;;;;;;;106935;1266;22517;-81
2023/03/23 10:00:17;;;;;;;8.00;1.20;;;;;;;;;;107188;1275;22524;-81
2023/03/23 10:03:03;;;;;;;9.20;1.20;;;;;;;;;;106917;1275;25455;-77
2023/03/23 10:05:41;;;;;;;12.00;1.30;;;;;;;;;;106929;1275;25224;-81
2023/03/23 10:08:13;;;;;;;12.10;1.30;;;;;;;;;;107020;1274;25305;-82
2023/03/23 10:10:47;;;;;;;9.80;1.00;;;;;;;;;;107028;1274;25268;-80
2023/03/23 10:13:40;;;;;;;9.80;1.30;;;;;;;;;;107134;1274;25470;-79
2023/03/23 10:16:18;;;;;;;11.00;1.50;;;;;;;;;;107106;1253;22515;-79
2023/03/23 10:18:57;;;;;;;21.50;2.10;;;;;;;;;;106983;1275;22523;-78
2023/03/23 10:21:27;;;;;;;8.20;1.50;;;;;;;;;;106899;1275;25271;-76
2023/03/23 10:24:25;;;;;;;8.90;1.50;;;;;;;;;;107098;1274;25281;-78
2023/03/23 10:27:09;;;;;;;8.00;1.40;;;;;;;;;;107144;1259;22577;-82
2023/03/23 10:29:43;;;;;;;10.30;1.70;;;;;;;;;;107099;1274;25292;-82
2023/03/23 10:32:13;;;;;;;11.00;1.40;;;;;;;;;;107063;1274;24973;-84
2023/03/23 10:34:49;;;;;;;15.60;1.40;;;;;;;;;;107112;1274;24219;-77
2023/03/23 10:37:27;;;;;;;8.50;0.90;;;;;;;;;;107080;1257;22535;-82
2023/03/23 10:39:59;;;;;;;8.40;1.00;;;;;;;;;;107166;1275;22539;-77
2023/03/23 10:42:47;;;;;;;8.80;1.30;;;;;;;;;;106893;1275;22524;-81
2023/03/23 10:45:18;;;;;;;9.30;1.20;;;;;;;;;;107103;1275;25309;-77
2023/03/23 10:47:53;;;;;;;7.30;1.20;;;;;;;;;;107148;1255;23874;-77
2023/03/23 10:50:28;;;;;;;9.10;1.30;;;;;;;;;;107126;1274;22523;-84
2023/03/23 10:53:17;;;;;;;6.60;1.20;;;;;;;;;;107069;1274;22525;-76
2023/03/23 10:55:47;;;;;;;8.70;1.10;;;;;;;;;;106935;1262;22536;-79
2023/03/23 10:58:28;;;;;;;6.40;1.30;;;;;;;;;;106991;1275;25366;-76
2023/03/23 11:01:15;;;;;;;6.30;1.50;;;;;;;;;;107009;1275;22533;-78
2023/03/23 11:03:44;;;;;;;29.70;14.80;;;;;;;;;;107120;1275;22572;-77
2023/03/23 11:06:18;;;;;;;9.50;2.90;;;;;;;;;;107168;1275;22520;-79
2023/03/23 11:08:53;;;;;;;5.30;1.70;;;;;;;;;;107153;1256;22523;-78
2023/03/23 11:11:43;;;;;;;11.50;3.60;;;;;;;;;;107125;1274;22526;-85
2023/03/23 11:14:16;;;;;;;8.60;1.50;;;;;;;;;;107069;1274;25400;-80
2023/03/23 11:16:44;;;;;;;7.40;1.40;;;;;;;;;;106907;1274;24194;-81
2023/03/23 11:19:26;;;;;;;14.00;3.30;;;;;;;;;;106978;1259;22531;-84
2023/03/23 11:21:54;;;;;;;16.40;2.20;;;;;;;;;;107100;1275;25290;-80
2023/03/23 11:24:44;;;;;;;9.40;2.20;;;;;;;;;;107083;1275;22523;-82
2023/03/23 11:27:23;;;;;;;30.90;15.60;;;;;;;;;;106974;1275;22648;-81
2023/03/23 11:30:12;;;;;;;10.30;2.90;;;;;;;;;;107096;1274;26503;-82
2023/03/23 11:33:00;;;;;;;8.50;1.70;;;;;;;;;;107049;1274;23876;-79
2023/03/23 11:35:27;;;;;;;5.10;1.10;;;;;;;;;;107099;1271;24244;-82
2023/03/23 11:38:12;;;;;;;7.80;1.40;;;;;;;;;;107037;1254;22639;-79
2023/03/23 11:40:46;;;;;;;7.40;1.50;;;;;;;;;;107125;1275;25387;-77
2023/03/23 11:43:26;;;;;;;6.80;1.40;;;;;;;;;;107075;1275;25329;-78
2023/03/23 11:46:26;;;;;;;7.40;1.40;;;;;;;;;;107101;1275;25333;-77
2023/03/23 11:49:01;;;;;;;7.40;1.50;;;;;;;;;;107096;1256;22483;-79
2023/03/23 11:51:41;;;;;;;7.10;1.40;;;;;;;;;;107239;1270;23734;-77
2023/03/23 11:54:14;;;;;;;8.90;1.90;;;;;;;;;;106922;1272;26482;-82
2023/03/23 11:56:42;;;;;;;6.50;1.40;;;;;;;;;;107028;1271;23914;-80
2023/03/23 11:59:17;;;;;;;7.50;1.80;;;;;;;;;;106930;1257;22511;-83
2023/03/23 12:02:04;;;;;;;7.10;1.70;;;;;;;;;;107140;1271;22520;-79
2023/03/23 12:04:38;;;;;;;9.50;1.90;;;;;;;;;;106984;1266;22618;-81
2023/03/23 12:07:14;;;;;;;11.10;2.20;;;;;;;;;;106984;1272;25265;-78
2023/03/23 12:09:56;;;;;;;14.10;4.30;;;;;;;;;;107047;1260;22601;-77
2023/03/23 12:12:30;;;;;;;9.20;3.00;;;;;;;;;;107284;1272;22527;-80
2023/03/23 12:15:16;;;;;;;9.00;3.30;;;;;;;;;;110586;1275;22239;-76
2023/03/23 12:17:46;;;;;;;8.40;2.00;;;;;;;;;;110670;1274;22143;-76
2023/03/23 12:20:18;;;;;;;10.00;1.90;;;;;;;;;;110820;1256;22102;-77
2023/03/23 12:22:54;;;;;;;14.70;2.70;;;;;;;;;;110614;1274;22309;-77
2023/03/23 12:25:28;;;;;;;14.50;1.90;;;;;;;;;;110619;1274;22095;-76
2023/03/23 12:27:58;;;;;;;13.10;1.70;;;;;;;;;;110649;1275;22597;-79
2023/03/23 12:30:28;;;;;;;19.00;2.10;;;;;;;;;;111053;1254;22211;-76
2023/03/23 12:33:04;;;;;;;8.90;1.50;;;;;;;;;;110650;1274;22154;-76
2023/03/23 12:35:40;;;;;;;9.60;1.50;;;;;;;;;;110619;1274;22141;-77
2023/03/23 12:38:13;;;;;;;13.10;1.80;;;;;;;;;;110642;1274;22775;-77
2023/03/23 12:40:43;;;;;;;7.70;1.50;;;;;;;;;;110953;1255;22112;-77
2023/03/23 12:43:18;;;;;;;9.90;1.80;;;;;;;;;;110596;1275;22305;-79
2023/03/23 12:45:56;;;;;;;7.90;2.10;;;;;;;;;;110600;1275;22126;-78
2023/03/23 12:48:32;;;;;;;9.90;2.20;;;;;;;;;;110598;1275;22396;-77
2023/03/23 12:51:28;;;;;;;9.50;2.40;;;;;;;;;;111016;1255;22173;-81
2023/03/23 12:54:02;;;;;;;9.60;2.10;;;;;;;;;;109986;1282;22305;-79
2023/03/23 12:56:32;;;;;;;8.00;2.60;;;;;;;;;;109986;1282;22167;-78
2023/03/23 12:59:20;;;;;;;27.80;16.10;;;;;;;;;;110058;1281;22153;-76
2023/03/23 13:01:50;;;;;;;7.60;2.30;;;;;;;;;;110001;1269;22157;-77
2023/03/23 13:04:26;;;;;;;24.70;3.60;;;;;;;;;;110096;1281;22941;-76
2023/03/23 13:06:53;;;;;;;8.40;3.30;;;;;;;;;;110059;1281;22860;-77
2023/03/23 13:09:27;;;;;;;9.40;4.20;;;;;;;;;;110047;1281;22127;-77
2023/03/23 13:11:55;;;;;;;7.40;2.10;;;;;;;;;;110037;1264;22925;-77
2023/03/23 13:14:32;;;;;;;14.10;7.20;;;;;;;;;;110082;1262;22125;-77
2023/03/23 13:17:11;;;;;;;7.10;2.80;;;;;;;;;;110068;1281;22123;-79
2023/03/23 13:19:41;;;;;;;8.90;3.20;;;;;;;;;;110051;1282;22144;-76
2023/03/23 13:22:12;;;;;;;8.30;1.80;;;;;;;;;;110239;1263;22218;-76
2023/03/23 13:24:41;;;;;;;8.30;3.00;;;;;;;;;;110052;1282;22793;-77
2023/03/23 13:27:11;;;;;;;9.10;4.40;;;;;;;;;;110021;1282;22018;-77
2023/03/23 13:29:44;;;;;;;8.90;3.60;;;;;;;;;;110111;1275;22450;-77
2023/03/23 13:32:15;;;;;;;5.90;2.30;;;;;;;;;;111027;1256;22879;-77
2023/03/23 13:34:41;;;;;;;7.90;2.00;;;;;;;;;;110490;1275;22113;-78
2023/03/23 13:37:18;;;;;;;11.90;3.90;;;;;;;;;;110482;1275;22139;-77
2023/03/23 13:39:56;;;;;;;10.90;3.70;;;;;;;;;;110616;1275;22156;-77
2023/03/23 13:42:24;;;;;;;25.10;13.60;;;;;;;;;;110860;1257;22450;-77
2023/03/23 13:44:51;;;;;;;15.10;7.50;;;;;;;;;;110473;1276;22122;-77
2023/03/23 13:47:26;;;;;;;9.70;5.10;;;;;;;;;;110616;1276;22916;-77
2023/03/23 13:49:57;;;;;;;9.00;3.70;;;;;;;;;;110634;1276;22117;-78
2023/03/23 13:52:36;;;;;;;13.70;6.20;;;;;;;;;;110732;1258;21994;-77
2023/03/23 13:55:15;;;;;;;9.50;4.20;;;;;;;;;;110375;1275;22196;-77
2023/03/23 13:57:57;;;;;;;8.40;2.80;;;;;;;;;;110496;1275;22281;-76
2023/03/23 14:00:27;;;;;;;21.50;10.00;;;;;;;;;;110570;1275;22924;-77
2023/03/23 14:02:59;;;;;;;13.20;5.00;;;;;;;;;;110274;1260;22108;-77
2023/03/23 14:05:48;;;;;;;9.80;4.80;;;;;;;;;;110345;1276;22385;-79
2023/03/23 14:08:21;;;;;;;11.20;4.10;;;;;;;;;;110262;1276;22149;-77
2023/03/23 14:10:48;;;;;;;9.50;4.10;;;;;;;;;;110561;1276;22119;-78
2023/03/23 14:13:39;;;;;;;8.90;2.80;;;;;;;;;;110464;1259;22144;-79
2023/03/23 14:16:17;;;;;;;16.90;8.50;;;;;;;;;;109992;1283;22952;-78
2023/03/23 14:19:09;;;;;;;11.10;5.00;;;;;;;;;;109925;1283;22960;-77
2023/03/23 14:21:38;;;;;;;21.50;9.50;;;;;;;;;;110016;1259;22236;-78
2023/03/23 14:24:23;;;;;;;29.80;13.50;;;;;;;;;;109972;1283;22888;-77
2023/03/23 14:26:54;;;;;;;12.70;4.80;;;;;;;;;;110033;1283;22122;-77
2023/03/23 14:29:23;;;;;;;11.20;3.60;;;;;;;;;;110000;1283;22428;-78
2023/03/23 14:31:55;;;;;;;9.10;3.40;;;;;;;;;;109941;1266;22172;-78
2023/03/23 14:34:27;;;;;;;6.80;2.00;;;;;;;;;;109981;1283;22379;-77
2023/03/23 14:36:56;;;;;;;7.20;2.00;;;;;;;;;;110003;1283;22158;-77
2023/03/23 14:39:30;;;;;;;9.20;2.90;;;;;;;;;;109998;1283;22932;-78
2023/03/23 14:42:06;;;;;;;8.40;3.60;;;;;;;;;;109971;1259;22963;-77
2023/03/23 14:44:34;;;;;;;10.70;5.40;;;;;;;;;;109976;1283;21998;-77
2023/03/23 14:47:03;;;;;;;5.90;1.90;;;;;;;;;;109971;1283;22850;-77
2023/03/23 14:49:37;;;;;;;8.30;2.10;;;;;;;;;;109964;1283;22147;-77
2023/03/23 14:52:11;;;;;;;7.00;2.00;;;;;;;;;;109946;1261;22128;-77
2023/03/23 14:54:46;;;;;;;6.00;1.80;;;;;;;;;;110549;1276;22090;-88
2023/03/23 14:57:25;;;;;;;7.10;1.70;;;;;;;;;;110569;1276;22107;-77
2023/03/23 14:59:52;;;;;;;9.80;2.60;;;;;;;;;;110469;1275;22104;-79
2023/03/23 15:02:28;;;;;;;5.30;1.50;;;;;;;;;;110501;1252;22098;-78
2023/03/23 15:04:57;;;;;;;6.40;1.50;;;;;;;;;;110447;1275;22115;-78
2023/03/23 15:07:26;;;;;;;6.40;1.40;;;;;;;;;;110553;1276;22115;-78
2023/03/23 15:10:04;;;;;;;10.00;3.10;;;;;;;;;;110473;1276;22758;-77
2023/03/23 15:12:31;;;;;;;8.00;3.50;;;;;;;;;;110686;1253;22142;-77
2023/03/23 15:15:00;;;;;;;10.60;3.20;;;;;;;;;;110689;1275;22811;-77
2023/03/23 15:17:32;;;;;;;6.10;2.00;;;;;;;;;;110477;1276;22861;-77
2023/03/23 15:20:07;;;;;;;6.10;1.70;;;;;;;;;;110362;1276;22173;-76
2023/03/23 15:22:35;;;;;;;6.40;1.80;;;;;;;;;;110293;1254;22875;-77
2023/03/23 15:25:08;;;;;;;13.60;2.80;;;;;;;;;;110294;1277;22061;-77
2023/03/23 15:27:39;;;;;;;10.30;2.60;;;;;;;;;;110320;1277;22137;-77
2023/03/23 15:30:15;;;;;;;8.10;2.40;;;;;;;;;;110475;1277;22123;-77
2023/03/23 15:32:45;;;;;;;8.00;3.30;;;;;;;;;;110307;1254;22856;-77